Lakewood, New York
Current Conditions -  °F | °C
As of 12:15 AM on Tuesday 21 Oct 2014 (Local Time) from KJHW Reporting Station
Overcast Overcast  
Wind Chill: 44°   Ceiling: 600
Heat Index: 46°   Visibility: 8mi
Dew Point: 45°   Wind: 6mph
Humidity: 93%   Direction: 200°SSW
Pressure: 29.82"   Gusts: NA
Location:  42.1°N, 79.33°W
Report Text: KJHW 210415Z AUTO 20005KT 8SM OVC006 08/07 A2982 RMK AO1
Loading
Personal Weather Stations






























Interactive Weather Map
Tropical Storm Tracking
New forecast layout! Learn more

10-Day Weather Forecast

Advertisements
Track Severe Weather on mobile